Marion, Connecticut
Current Conditions -  °F | °C
As of 6:53 PM on Saturday 22 Nov 2014 (Local Time) from KMMK Reporting Station
Overcast Overcast  
Wind Chill: 38°   Ceiling: 4000
Heat Index: 42°   Visibility: 10mi
Dew Point: 18°   Wind: 7mph
Humidity: 38%   Direction: 210°SSW
Pressure: 30.2"   Gusts: 18mph
Location:  41.56°N, 72.93°W
Report Text: KMMK 222353Z AUTO 21006G16KT 10SM OVC040 06/M08 A3020 RMK AO2 SLP230 T00561078 10056 20039 55010 TSNO
Loading
Personal Weather Stations






























Interactive Weather Map New forecast layout! Learn more

10-Day Weather Forecast

Advertisements
Track Severe Weather on mobile